Time;durP1;ratioP1;P1;durP2;ratioP2;P2;SDS_P1;SDS_P2;PMS_P1;PMS_P2;Temp;Humidity;BMP_temperature;BMP_pressure;BME280_temperature;BME280_humidity;BME280_pressure;Samples;Min_cycle;Max_cycle;Signal;HPM_P1;HPM_P2
2020/12/21 00:00:17;;;;;;;19.53;17.53;;;8.30;99.90;;;;;;5031622;28;20441;-91
2020/12/21 00:02:47;;;;;;;21.07;18.87;;;8.30;99.90;;;;;;5031401;28;20469;-90
2020/12/21 00:05:13;;;;;;;19.43;17.53;;;8.30;99.90;;;;;;5031353;28;20528;-91
2020/12/21 00:07:49;;;;;;;20.77;18.60;;;8.30;99.90;;;;;;5031913;28;20475;-90
2020/12/21 00:10:19;;;;;;;21.90;19.70;;;8.30;99.90;;;;;;5030873;28;20446;-92
2020/12/21 00:12:48;;;;;;;22.53;20.17;;;8.30;99.90;;;;;;5031951;28;20447;-90
2020/12/21 00:15:20;;;;;;;20.50;18.27;;;8.30;99.90;;;;;;5031385;28;20473;-90
2020/12/21 00:17:48;;;;;;;21.67;19.40;;;8.30;99.90;;;;;;5031592;28;20534;-89
2020/12/21 00:20:15;;;;;;;20.27;17.93;;;8.30;99.90;;;;;;5031162;28;20461;-90
2020/12/21 00:22:42;;;;;;;20.87;18.40;;;8.30;99.90;;;;;;5031270;28;20627;-91
2020/12/21 00:25:10;;;;;;;20.93;18.83;;;8.30;99.90;;;;;;5031319;28;20997;-92
2020/12/21 00:27:37;;;;;;;20.63;18.43;;;8.30;99.90;;;;;;5029623;28;20453;-91
2020/12/21 00:30:04;;;;;;;21.27;19.07;;;8.30;99.90;;;;;;5031390;28;20930;-90
2020/12/21 00:32:31;;;;;;;20.23;18.30;;;8.40;99.90;;;;;;5032055;28;20434;-90
2020/12/21 00:34:58;;;;;;;21.93;19.63;;;8.40;99.90;;;;;;5031421;28;20441;-92
2020/12/21 00:37:24;;;;;;;20.40;18.20;;;8.30;99.90;;;;;;5031877;28;20511;-90
2020/12/21 00:39:51;;;;;;;21.40;19.10;;;8.30;99.90;;;;;;5031467;28;20441;-92
2020/12/21 00:42:18;;;;;;;20.70;18.50;;;8.30;99.90;;;;;;5031249;28;20999;-90
2020/12/21 00:44:44;;;;;;;21.87;19.57;;;8.40;99.90;;;;;;5030704;28;20441;-91
2020/12/21 00:47:10;;;;;;;20.83;18.27;;;8.30;99.90;;;;;;5031545;28;20468;-91
2020/12/21 00:49:37;;;;;;;20.00;17.90;;;8.30;99.90;;;;;;5031281;28;20452;-91
2020/12/21 00:52:03;;;;;;;24.63;19.67;;;8.20;99.90;;;;;;5031174;28;20461;-91
2020/12/21 00:54:29;;;;;;;20.07;17.93;;;8.10;99.90;;;;;;5030847;28;20452;-90
2020/12/21 00:56:56;;;;;;;19.57;17.57;;;8.00;99.90;;;;;;5031189;28;20441;-91
2020/12/21 00:59:23;;;;;;;22.90;19.00;;;8.00;99.90;;;;;;5029177;28;20441;-91
2020/12/21 01:01:49;;;;;;;20.10;17.70;;;8.00;99.90;;;;;;5030935;28;20490;-90
2020/12/21 01:04:15;;;;;;;20.27;18.17;;;7.90;99.90;;;;;;5030836;28;21048;-90
2020/12/21 01:06:42;;;;;;;21.87;16.77;;;8.00;99.90;;;;;;5031000;28;20429;-92
2020/12/21 01:09:10;;;;;;;21.47;19.27;;;8.00;99.90;;;;;;5030761;28;20458;-91
2020/12/21 01:11:37;;;;;;;19.77;17.73;;;8.00;99.90;;;;;;5029061;28;20492;-93
2020/12/21 01:14:04;;;;;;;21.73;19.17;;;8.00;99.90;;;;;;5030113;28;20445;-91
2020/12/21 01:16:30;;;;;;;20.83;18.60;;;8.10;99.90;;;;;;5029821;28;20511;-90
2020/12/21 01:18:56;;;;;;;19.77;17.80;;;8.10;99.90;;;;;;5030780;28;20441;-90
2020/12/21 01:21:24;;;;;;;20.73;18.73;;;8.10;99.90;;;;;;5029037;28;20485;-91
2020/12/21 01:23:50;;;;;;;20.43;18.23;;;8.10;99.90;;;;;;5030789;28;20445;-90
2020/12/21 01:26:17;;;;;;;19.50;17.40;;;8.10;99.90;;;;;;5030323;28;20453;-90
2020/12/21 01:28:43;;;;;;;19.20;17.30;;;8.20;99.90;;;;;;5030816;28;20813;-91
2020/12/21 01:31:10;;;;;;;20.80;18.60;;;8.20;99.90;;;;;;5030777;28;20480;-91
2020/12/21 01:33:36;;;;;;;20.40;17.73;;;8.20;99.90;;;;;;5028177;28;20532;-92
2020/12/21 01:36:03;;;;;;;21.50;19.30;;;8.20;99.90;;;;;;5030594;28;20886;-91
2020/12/21 01:38:29;;;;;;;21.27;19.07;;;8.20;99.90;;;;;;5030701;28;20429;-91
2020/12/21 01:40:55;;;;;;;22.23;18.50;;;8.20;99.90;;;;;;5030587;28;20567;-92
2020/12/21 01:43:21;;;;;;;23.73;18.23;;;8.20;99.90;;;;;;5028622;28;20900;-91
2020/12/21 01:45:49;;;;;;;22.67;20.27;;;8.20;99.90;;;;;;5029697;28;20445;-92
2020/12/21 01:48:16;;;;;;;23.70;21.33;;;8.20;99.90;;;;;;5030027;28;20532;-92
2020/12/21 01:50:42;;;;;;;22.77;19.73;;;8.20;99.90;;;;;;5030035;28;20488;-90
2020/12/21 01:53:10;;;;;;;21.37;19.07;;;8.20;99.90;;;;;;5030666;28;20491;-90
2020/12/21 01:55:39;;;;;;;22.67;20.30;;;8.10;99.90;;;;;;5028686;28;20453;-92
2020/12/21 01:58:05;;;;;;;22.37;19.97;;;8.00;99.90;;;;;;5028742;28;20483;-92
2020/12/21 02:00:32;;;;;;;21.93;19.47;;;7.90;99.90;;;;;;5042558;28;20461;-91
2020/12/21 02:02:58;;;;;;;23.47;20.07;;;7.80;99.90;;;;;;5043898;28;20531;-90
2020/12/21 02:05:25;;;;;;;22.43;19.40;;;7.70;99.90;;;;;;5030300;28;20803;-91
2020/12/21 02:07:51;;;;;;;21.63;19.07;;;7.60;99.90;;;;;;5032254;28;20449;-92
2020/12/21 02:10:18;;;;;;;21.90;19.23;;;7.50;99.90;;;;;;5033793;28;20879;-90
2020/12/21 02:12:44;;;;;;;21.50;19.20;;;7.40;99.90;;;;;;5034142;28;20440;-90
2020/12/21 02:15:11;;;;;;;21.80;19.60;;;7.40;99.90;;;;;;5033677;28;20473;-91
2020/12/21 02:17:37;;;;;;;21.47;19.13;;;7.30;99.90;;;;;;5034039;28;20451;-90
2020/12/21 02:20:03;;;;;;;24.03;19.70;;;7.30;99.90;;;;;;5033956;28;21113;-90
2020/12/21 02:22:30;;;;;;;21.03;18.83;;;7.30;99.90;;;;;;5034023;28;20484;-91
2020/12/21 02:24:56;;;;;;;21.93;19.73;;;7.20;99.90;;;;;;5033865;28;20449;-89
2020/12/21 02:27:23;;;;;;;21.07;18.87;;;7.20;99.90;;;;;;5034048;28;20452;-90
2020/12/21 02:29:49;;;;;;;22.97;20.40;;;7.10;99.90;;;;;;5033911;28;20500;-91
2020/12/21 02:32:18;;;;;;;21.77;19.43;;;7.10;99.90;;;;;;5033738;28;20473;-89
2020/12/21 02:34:44;;;;;;;23.10;20.20;;;7.00;99.90;;;;;;5033506;28;20976;-89
2020/12/21 02:37:10;;;;;;;20.77;18.50;;;7.00;99.90;;;;;;5033603;28;20445;-91
2020/12/21 02:39:37;;;;;;;22.00;19.50;;;6.90;99.90;;;;;;5033857;28;20564;-91
2020/12/21 02:42:04;;;;;;;23.93;20.13;;;6.90;99.90;;;;;;5033718;28;20485;-92
2020/12/21 02:44:30;;;;;;;21.90;18.67;;;6.90;99.90;;;;;;5033452;28;20756;-92
2020/12/21 02:46:56;;;;;;;22.50;19.67;;;6.90;99.90;;;;;;5033557;28;20796;-92
2020/12/21 02:49:22;;;;;;;23.60;21.20;;;6.80;99.90;;;;;;5032973;28;20441;-91
2020/12/21 02:51:53;;;;;;;22.97;20.23;;;6.80;99.90;;;;;;5033458;28;20841;-90
2020/12/21 02:54:19;;;;;;;23.03;20.33;;;6.80;99.90;;;;;;5037661;28;20485;-91
2020/12/21 02:56:51;;;;;;;21.17;19.03;;;6.70;99.90;;;;;;5038244;28;20473;-91
2020/12/21 02:59:17;;;;;;;22.43;18.60;;;6.70;99.90;;;;;;5036514;28;21051;-90
2020/12/21 03:01:43;;;;;;;23.07;19.73;;;6.70;99.90;;;;;;5034612;28;20489;-91
2020/12/21 03:04:10;;;;;;;21.50;18.23;;;6.70;99.90;;;;;;5033281;28;20457;-90
2020/12/21 03:06:36;;;;;;;20.67;18.47;;;6.70;99.90;;;;;;5031220;28;20507;-91
2020/12/21 03:09:03;;;;;;;21.13;18.73;;;6.60;99.90;;;;;;5032975;28;20501;-90
2020/12/21 03:11:29;;;;;;;21.03;18.77;;;6.70;99.90;;;;;;5033273;28;20519;-91
2020/12/21 03:13:56;;;;;;;22.80;18.60;;;6.70;99.90;;;;;;5032966;28;20438;-90
2020/12/21 03:16:23;;;;;;;24.33;21.40;;;6.70;99.90;;;;;;5032085;28;20446;-91
2020/12/21 03:18:49;;;;;;;24.17;19.43;;;6.70;99.90;;;;;;5031744;28;20563;-89
2020/12/21 03:21:16;;;;;;;22.53;20.20;;;6.70;99.90;;;;;;5031855;28;20473;-91
2020/12/21 03:23:42;;;;;;;22.90;19.53;;;6.70;99.90;;;;;;5032746;28;20445;-90
2020/12/21 03:26:08;;;;;;;22.90;19.57;;;6.70;99.90;;;;;;5032594;28;20816;-92
2020/12/21 03:28:34;;;;;;;22.77;20.40;;;6.70;99.90;;;;;;5032808;28;20446;-91
2020/12/21 03:31:02;;;;;;;22.90;19.90;;;6.60;99.90;;;;;;5032436;28;20465;-91
2020/12/21 03:33:28;;;;;;;25.37;21.67;;;6.50;99.90;;;;;;5033062;28;20445;-90
2020/12/21 03:35:54;;;;;;;23.33;20.07;;;6.50;99.90;;;;;;5031848;28;20445;-91
2020/12/21 03:38:21;;;;;;;23.40;20.27;;;6.50;99.90;;;;;;5032345;28;20472;-90
2020/12/21 03:40:47;;;;;;;27.03;20.20;;;6.50;99.90;;;;;;5032673;28;20465;-91
2020/12/21 03:43:13;;;;;;;24.07;19.70;;;6.40;99.90;;;;;;5032304;28;20488;-91
2020/12/21 03:45:40;;;;;;;24.93;22.00;;;6.40;99.90;;;;;;5032298;28;20886;-90
2020/12/21 03:48:07;;;;;;;24.70;20.97;;;6.30;99.90;;;;;;5031671;28;20441;-91
2020/12/21 03:50:33;;;;;;;23.87;21.40;;;6.40;99.90;;;;;;5031599;28;20465;-92
2020/12/21 03:52:59;;;;;;;25.30;21.10;;;6.40;99.90;;;;;;5032214;28;20442;-93
2020/12/21 03:55:25;;;;;;;23.07;20.03;;;6.50;99.90;;;;;;5031205;28;20441;-91
2020/12/21 03:57:51;;;;;;;24.50;21.43;;;6.50;99.90;;;;;;5031790;28;20449;-91
2020/12/21 04:00:18;;;;;;;25.53;20.27;;;6.50;99.90;;;;;;5031515;28;20452;-90
2020/12/21 04:02:44;;;;;;;23.00;20.70;;;6.50;99.90;;;;;;5031531;28;20552;-91
2020/12/21 04:05:11;;;;;;;23.27;20.90;;;6.40;99.90;;;;;;5031400;28;20508;-92
2020/12/21 04:07:37;;;;;;;22.40;20.00;;;6.30;99.90;;;;;;5031639;28;20441;-91
2020/12/21 04:10:05;;;;;;;22.10;19.80;;;6.30;99.90;;;;;;5031734;28;20488;-91
2020/12/21 04:12:31;;;;;;;22.33;19.93;;;6.20;99.90;;;;;;5032364;28;20437;-92
2020/12/21 04:14:58;;;;;;;25.73;21.03;;;6.10;99.90;;;;;;5031907;28;20968;-91
2020/12/21 04:17:24;;;;;;;24.00;21.20;;;6.00;99.90;;;;;;5050049;28;20501;-90
2020/12/21 04:19:50;;;;;;;24.70;20.67;;;6.00;99.90;;;;;;5040042;28;20438;-91
2020/12/21 04:22:17;;;;;;;25.00;19.80;;;6.00;99.90;;;;;;5031820;28;20507;-91
2020/12/21 04:24:43;;;;;;;25.37;21.53;;;6.00;99.90;;;;;;5031517;28;20453;-91
2020/12/21 04:27:09;;;;;;;22.47;19.23;;;5.90;99.90;;;;;;5031392;28;20463;-91
2020/12/21 04:29:35;;;;;;;23.10;19.50;;;5.90;99.90;;;;;;5029065;28;20446;-92
2020/12/21 04:32:02;;;;;;;25.00;21.70;;;5.90;99.90;;;;;;5031479;28;20506;-92
2020/12/21 04:34:28;;;;;;;26.90;22.50;;;5.90;99.90;;;;;;5030952;28;20515;-89
2020/12/21 04:36:55;;;;;;;26.43;21.73;;;5.90;99.90;;;;;;5031533;28;20780;-90
2020/12/21 04:39:22;;;;;;;25.93;21.87;;;6.00;99.90;;;;;;5029123;28;20453;-89
2020/12/21 04:41:53;;;;;;;24.80;21.30;;;6.00;99.90;;;;;;5031363;28;20808;-91
2020/12/21 04:44:21;;;;;;;23.00;20.53;;;5.90;99.90;;;;;;5031259;28;21157;-91
2020/12/21 04:46:48;;;;;;;25.60;21.83;;;5.90;99.90;;;;;;5030843;28;20506;-90
2020/12/21 04:49:16;;;;;;;27.70;23.10;;;6.00;99.90;;;;;;5030837;28;20532;-92
2020/12/21 04:51:47;;;;;;;22.77;20.27;;;6.00;99.90;;;;;;5031192;28;20818;-90
2020/12/21 04:54:14;;;;;;;24.77;21.60;;;6.00;99.90;;;;;;5031266;28;20429;-91
2020/12/21 04:56:42;;;;;;;26.40;21.40;;;6.00;99.90;;;;;;5029645;28;20484;-90
2020/12/21 04:59:08;;;;;;;25.97;21.17;;;6.10;99.90;;;;;;5029312;28;20433;-91
2020/12/21 05:01:34;;;;;;;26.33;21.90;;;6.10;99.90;;;;;;5030637;28;20476;-90
2020/12/21 05:04:01;;;;;;;27.70;20.77;;;6.10;99.90;;;;;;5030898;28;20472;-92
2020/12/21 05:06:27;;;;;;;24.87;20.30;;;6.10;99.90;;;;;;5031824;28;20515;-90
2020/12/21 05:09:01;;;;;;;23.97;21.23;;;6.20;99.90;;;;;;5030945;28;20445;-90
2020/12/21 05:11:28;;;;;;;22.40;19.33;;;6.20;99.90;;;;;;5029400;28;20469;-90
2020/12/21 05:14:05;;;;;;;25.90;21.27;;;6.30;99.90;;;;;;5030877;28;20461;-90
2020/12/21 05:16:32;;;;;;;23.37;20.73;;;6.30;99.90;;;;;;5030578;28;20892;-91
2020/12/21 05:18:58;;;;;;;26.33;21.03;;;6.30;99.90;;;;;;5030847;28;20441;-90
2020/12/21 05:21:27;;;;;;;23.07;20.67;;;6.30;99.90;;;;;;5030846;28;20508;-90
2020/12/21 05:24:00;;;;;;;24.23;20.07;;;6.40;99.90;;;;;;5029093;28;20442;-90
2020/12/21 05:26:28;;;;;;;25.00;19.13;;;6.30;99.90;;;;;;5030455;28;20495;-90
2020/12/21 05:28:54;;;;;;;25.40;19.03;;;6.40;99.90;;;;;;5030786;28;20440;-90
2020/12/21 05:31:21;;;;;;;22.20;19.37;;;6.40;99.90;;;;;;5030471;28;20547;-90
2020/12/21 05:33:48;;;;;;;25.50;18.80;;;6.30;99.90;;;;;;5030774;28;20503;-89
2020/12/21 05:36:15;;;;;;;22.57;18.80;;;6.40;99.90;;;;;;5029550;28;20464;-90
2020/12/21 05:38:43;;;;;;;24.07;18.30;;;6.40;99.90;;;;;;5030629;28;20464;-91
2020/12/21 05:41:11;;;;;;;22.60;19.37;;;6.50;99.90;;;;;;5030813;28;20519;-91
2020/12/21 05:43:38;;;;;;;22.53;19.40;;;6.50;99.90;;;;;;5034336;28;20488;-90
2020/12/21 05:46:12;;;;;;;23.47;19.43;;;6.50;99.90;;;;;;5033832;28;20445;-90
2020/12/21 05:48:41;;;;;;;26.73;20.40;;;6.60;99.90;;;;;;5033077;28;20437;-91
2020/12/21 05:51:09;;;;;;;24.10;20.57;;;6.60;99.90;;;;;;5034066;28;20468;-91
2020/12/21 05:53:42;;;;;;;28.07;19.53;;;6.60;99.90;;;;;;5034552;28;20488;-90
2020/12/21 05:56:09;;;;;;;21.43;18.93;;;6.60;99.90;;;;;;5032100;28;20445;-90
2020/12/21 05:58:37;;;;;;;20.83;17.90;;;6.60;99.90;;;;;;5034360;28;20480;-90
2020/12/21 06:01:05;;;;;;;19.47;17.30;;;6.70;99.90;;;;;;5033936;28;20476;-89
2020/12/21 06:03:54;;;;;;;22.50;18.43;;;6.70;99.90;;;;;;5033862;28;20511;-90
2020/12/21 06:06:21;;;;;;;21.10;18.10;;;6.70;99.90;;;;;;5028400;28;20440;-90
2020/12/21 06:08:49;;;;;;;21.17;18.97;;;6.70;99.90;;;;;;5034448;28;21031;-91
2020/12/21 06:11:18;;;;;;;21.80;19.60;;;6.70;99.90;;;;;;5033938;28;20985;-92
2020/12/21 06:13:58;;;;;;;24.40;19.50;;;6.70;99.90;;;;;;5034135;28;20441;-91
2020/12/21 06:16:26;;;;;;;23.57;20.80;;;6.70;99.90;;;;;;5032431;28;20448;-91
2020/12/21 06:18:58;;;;;;;22.40;20.00;;;6.70;99.90;;;;;;5032476;28;20455;-90
2020/12/21 06:21:26;;;;;;;21.60;19.50;;;6.70;99.90;;;;;;5032419;28;20457;-90
2020/12/21 06:23:52;;;;;;;27.47;20.20;;;6.70;99.90;;;;;;5029936;28;20444;-91
2020/12/21 06:26:18;;;;;;;24.33;17.87;;;6.60;99.90;;;;;;5034763;28;20457;-91
2020/12/21 06:28:45;;;;;;;22.00;18.83;;;6.70;99.90;;;;;;5036989;28;20816;-92
2020/12/21 06:31:15;;;;;;;21.90;17.40;;;6.60;99.90;;;;;;5049980;28;20483;-90
2020/12/21 06:33:42;;;;;;;20.97;17.63;;;6.60;99.90;;;;;;5044073;28;20483;-90
2020/12/21 06:36:09;;;;;;;20.33;16.93;;;6.60;99.90;;;;;;5033159;28;20437;-90
2020/12/21 06:38:43;;;;;;;22.40;17.00;;;6.50;99.90;;;;;;5033857;28;20437;-91
2020/12/21 06:41:13;;;;;;;20.13;14.93;;;6.50;99.90;;;;;;5031745;28;20491;-91
2020/12/21 06:43:40;;;;;;;17.47;15.40;;;6.50;99.90;;;;;;5031908;28;21001;-91
2020/12/21 06:46:14;;;;;;;16.87;15.10;;;6.40;99.90;;;;;;5033059;28;20935;-90
2020/12/21 06:48:41;;;;;;;18.00;16.20;;;6.40;99.90;;;;;;5032428;28;20535;-91
2020/12/21 06:51:13;;;;;;;18.53;16.67;;;6.40;99.90;;;;;;5033109;28;21012;-90
2020/12/21 06:53:39;;;;;;;19.20;16.27;;;6.40;99.90;;;;;;5032230;28;20433;-90
2020/12/21 06:56:13;;;;;;;18.17;16.17;;;6.30;99.90;;;;;;5032913;28;20454;-90
2020/12/21 06:58:39;;;;;;;18.30;16.40;;;6.30;99.90;;;;;;5031632;28;20452;-90
2020/12/21 07:01:05;;;;;;;21.07;18.80;;;6.30;99.90;;;;;;5032625;28;20469;-91
2020/12/21 07:03:32;;;;;;;20.50;17.07;;;6.20;99.90;;;;;;5033331;28;20476;-89
2020/12/21 07:05:58;;;;;;;16.60;14.73;;;6.20;99.90;;;;;;5032736;28;20433;-91
2020/12/21 07:08:25;;;;;;;17.60;14.93;;;6.20;99.90;;;;;;5033120;28;20974;-90
2020/12/21 07:10:57;;;;;;;19.60;15.87;;;6.20;99.90;;;;;;5030876;28;20472;-90
2020/12/21 07:13:23;;;;;;;17.70;14.67;;;6.10;99.90;;;;;;5030564;28;20473;-90
2020/12/21 07:15:50;;;;;;;17.80;15.13;;;6.10;99.90;;;;;;5032109;28;20445;-90
2020/12/21 07:18:16;;;;;;;19.03;16.40;;;6.00;99.90;;;;;;5032902;28;20701;-91
2020/12/21 07:20:43;;;;;;;17.10;13.90;;;6.00;99.90;;;;;;5032941;28;20472;-90
2020/12/21 07:23:10;;;;;;;18.13;14.80;;;6.00;99.90;;;;;;5032581;28;20543;-89
2020/12/21 07:25:37;;;;;;;18.03;15.10;;;6.00;99.90;;;;;;5032877;28;20453;-90
2020/12/21 07:28:03;;;;;;;17.80;16.00;;;5.90;99.90;;;;;;5032190;28;20449;-91
2020/12/21 07:30:29;;;;;;;18.37;15.00;;;5.90;99.90;;;;;;5032123;28;20504;-90
2020/12/21 07:32:55;;;;;;;22.30;15.80;;;5.90;99.90;;;;;;5032005;28;20434;-90
2020/12/21 07:35:21;;;;;;;19.00;15.20;;;5.90;99.90;;;;;;5030147;28;20969;-90
2020/12/21 07:37:48;;;;;;;19.70;16.30;;;5.90;99.90;;;;;;5032518;28;20421;-90
2020/12/21 07:40:21;;;;;;;17.90;13.27;;;5.90;99.90;;;;;;5032157;28;20444;-90
2020/12/21 07:42:52;;;;;;;18.47;15.63;;;5.90;99.90;;;;;;5032121;28;20481;-91
2020/12/21 07:45:18;;;;;;;16.93;15.13;;;5.80;99.90;;;;;;5031785;28;20813;-91
2020/12/21 07:47:45;;;;;;;19.00;15.20;;;5.90;99.90;;;;;;5032472;28;20442;-91
2020/12/21 07:50:11;;;;;;;16.00;13.57;;;5.90;99.90;;;;;;5032019;28;21249;-91
2020/12/21 07:52:38;;;;;;;20.90;16.40;;;5.90;99.90;;;;;;5031947;28;20453;-90
2020/12/21 07:55:04;;;;;;;15.53;13.90;;;5.80;99.90;;;;;;5031195;28;20966;-92
2020/12/21 07:57:31;;;;;;;15.63;14.00;;;5.90;99.90;;;;;;5031655;28;20801;-91
2020/12/21 07:59:58;;;;;;;15.33;13.40;;;5.90;99.90;;;;;;5032038;28;20453;-91
2020/12/21 08:02:26;;;;;;;16.20;14.50;;;5.90;99.90;;;;;;5032305;28;20485;-90
2020/12/21 08:04:52;;;;;;;16.07;13.20;;;5.90;99.90;;;;;;5029221;28;20519;-90
2020/12/21 08:07:18;;;;;;;15.30;13.70;;;5.90;99.90;;;;;;5031482;28;20461;-91
2020/12/21 08:09:45;;;;;;;15.00;13.10;;;5.90;99.90;;;;;;5031816;28;20442;-91
2020/12/21 08:12:13;;;;;;;18.47;14.30;;;5.90;99.90;;;;;;5034344;28;20469;-91
2020/12/21 08:14:41;;;;;;;16.87;12.97;;;6.00;99.90;;;;;;5031358;28;20436;-91
2020/12/21 08:17:11;;;;;;;15.07;13.33;;;6.00;99.90;;;;;;5030115;28;20442;-90
2020/12/21 08:19:47;;;;;;;15.37;13.13;;;6.10;99.90;;;;;;5031047;28;20434;-91
2020/12/21 08:22:18;;;;;;;16.07;13.37;;;6.10;99.90;;;;;;5031972;28;20488;-89
2020/12/21 08:24:44;;;;;;;17.30;13.17;;;6.20;99.90;;;;;;5032127;28;20445;-90
2020/12/21 08:27:18;;;;;;;17.13;13.20;;;6.20;99.90;;;;;;5032327;28;20902;-92
2020/12/21 08:29:44;;;;;;;17.30;12.93;;;6.20;99.90;;;;;;5031148;28;21216;-90
2020/12/21 08:32:11;;;;;;;15.30;13.13;;;6.30;99.90;;;;;;5031473;28;20468;-89
2020/12/21 08:34:38;;;;;;;18.93;13.07;;;6.30;99.90;;;;;;5029067;28;20787;-90
2020/12/21 08:37:04;;;;;;;13.10;11.67;;;6.30;99.90;;;;;;5031563;28;20952;-90
2020/12/21 08:39:30;;;;;;;12.87;11.60;;;6.40;99.90;;;;;;5032094;28;20944;-90
2020/12/21 08:41:59;;;;;;;14.93;12.63;;;6.50;99.90;;;;;;5031556;28;20465;-89
2020/12/21 08:44:27;;;;;;;13.70;11.70;;;6.50;99.90;;;;;;5033106;28;20452;-90
2020/12/21 08:46:55;;;;;;;15.43;13.13;;;6.60;99.90;;;;;;5037345;28;20441;-90
2020/12/21 08:49:23;;;;;;;13.90;12.60;;;6.70;99.90;;;;;;5055294;28;20453;-91
2020/12/21 08:51:50;;;;;;;15.30;13.80;;;6.70;99.90;;;;;;5031412;28;20465;-90
2020/12/21 08:54:16;;;;;;;17.30;15.50;;;6.80;99.90;;;;;;5031000;28;20449;-90
2020/12/21 08:56:46;;;;;;;14.30;12.80;;;6.90;99.90;;;;;;5031035;28;20452;-90
2020/12/21 08:59:14;;;;;;;16.00;13.50;;;6.80;99.90;;;;;;5030937;28;20445;-93
2020/12/21 09:01:41;;;;;;;16.27;13.43;;;6.90;99.90;;;;;;5031322;28;20480;-89
2020/12/21 09:04:11;;;;;;;12.53;11.23;;;7.00;99.90;;;;;;5028922;28;20453;-94
2020/12/21 09:06:38;;;;;;;13.93;11.23;;;7.00;99.90;;;;;;5028838;28;20449;-92
2020/12/21 09:09:05;;;;;;;14.57;12.83;;;7.10;99.90;;;;;;5032192;28;20457;-92
2020/12/21 09:11:31;;;;;;;14.47;12.83;;;7.00;99.90;;;;;;5032355;28;20469;-92
2020/12/21 09:13:57;;;;;;;13.30;11.20;;;7.00;99.90;;;;;;5031811;28;20442;-92
2020/12/21 09:16:25;;;;;;;13.27;11.87;;;7.10;99.90;;;;;;5029838;28;20441;-92
2020/12/21 09:18:51;;;;;;;14.10;11.97;;;7.10;99.90;;;;;;5029903;28;20446;-90
2020/12/21 09:21:22;;;;;;;12.93;11.53;;;7.10;99.90;;;;;;5032081;28;20528;-88
2020/12/21 09:23:50;;;;;;;12.77;11.47;;;7.10;99.90;;;;;;5031022;28;20850;-89
2020/12/21 09:26:16;;;;;;;14.83;13.23;;;7.20;99.90;;;;;;5029830;28;20508;-88
2020/12/21 09:28:43;;;;;;;13.00;11.47;;;7.30;99.90;;;;;;5030886;28;20449;-87
2020/12/21 09:31:10;;;;;;;13.73;12.17;;;7.30;99.90;;;;;;5029275;28;20465;-87
2020/12/21 09:33:36;;;;;;;16.57;12.43;;;7.30;99.90;;;;;;5030411;28;20438;-88
2020/12/21 09:36:03;;;;;;;14.10;12.73;;;7.20;99.90;;;;;;5030477;28;20445;-89
2020/12/21 09:38:29;;;;;;;12.40;10.80;;;7.20;99.90;;;;;;5030930;28;20442;-88
2020/12/21 09:40:56;;;;;;;12.97;10.67;;;7.40;99.90;;;;;;5030793;28;20462;-87
2020/12/21 09:43:22;;;;;;;13.53;12.10;;;7.50;99.90;;;;;;5029757;28;20477;-89
2020/12/21 09:45:48;;;;;;;12.23;11.13;;;7.50;99.90;;;;;;5029811;28;20527;-87
2020/12/21 09:48:14;;;;;;;13.87;11.30;;;7.50;99.90;;;;;;5030277;28;20446;-88
2020/12/21 09:50:40;;;;;;;11.17;9.80;;;7.60;99.90;;;;;;5030678;28;20507;-88
2020/12/21 09:53:07;;;;;;;13.40;11.90;;;7.60;99.90;;;;;;5030233;28;20973;-87
2020/12/21 09:55:33;;;;;;;14.97;12.80;;;7.60;99.90;;;;;;5030149;28;20945;-89
2020/12/21 09:58:00;;;;;;;12.10;10.80;;;7.50;99.90;;;;;;5030606;28;20438;-87
2020/12/21 10:00:28;;;;;;;19.13;12.67;;;7.60;99.90;;;;;;5030603;28;20461;-88
2020/12/21 10:02:54;;;;;;;16.13;11.33;;;7.60;99.90;;;;;;5027827;28;20478;-88
2020/12/21 10:05:20;;;;;;;12.07;10.87;;;7.70;99.90;;;;;;5030788;28;20457;-88
2020/12/21 10:07:46;;;;;;;17.70;10.93;;;7.80;99.90;;;;;;5029952;28;20448;-88
2020/12/21 10:10:13;;;;;;;12.80;10.23;;;7.80;99.90;;;;;;5030453;28;20452;-88
2020/12/21 10:12:39;;;;;;;15.00;12.50;;;7.90;99.90;;;;;;5028600;28;20441;-88
2020/12/21 10:15:06;;;;;;;13.10;10.70;;;8.00;99.90;;;;;;5030389;28;20434;-88
2020/12/21 10:17:32;;;;;;;13.97;10.10;;;8.00;99.90;;;;;;5030666;28;20449;-88
2020/12/21 10:19:58;;;;;;;12.90;11.60;;;8.00;99.90;;;;;;5030414;28;20441;-88
2020/12/21 10:22:25;;;;;;;14.23;11.13;;;8.00;99.90;;;;;;5028414;28;20489;-89
2020/12/21 10:24:51;;;;;;;10.33;9.20;;;8.10;99.90;;;;;;5030113;28;20437;-88
2020/12/21 10:27:17;;;;;;;10.67;9.57;;;8.10;99.90;;;;;;5030441;28;20489;-89
2020/12/21 10:29:43;;;;;;;13.10;9.53;;;8.10;99.90;;;;;;5033448;28;20442;-89
2020/12/21 10:32:10;;;;;;;10.60;9.60;;;8.10;99.90;;;;;;5033917;28;20461;-89
2020/12/21 10:34:36;;;;;;;11.87;10.67;;;8.20;99.90;;;;;;5034833;28;20476;-88
2020/12/21 10:37:03;;;;;;;12.80;10.37;;;8.20;99.90;;;;;;5032104;28;20457;-93
2020/12/21 10:39:36;;;;;;;15.20;11.23;;;8.10;99.90;;;;;;5034480;28;20442;-93
2020/12/21 10:42:05;;;;;;;10.53;9.43;;;8.10;99.90;;;;;;5035363;28;20468;-92
2020/12/21 10:44:31;;;;;;;11.23;10.13;;;8.20;99.90;;;;;;5035190;28;20441;-90
2020/12/21 10:46:58;;;;;;;10.43;9.33;;;8.30;99.90;;;;;;5033396;28;20445;-90
2020/12/21 10:49:25;;;;;;;11.83;10.63;;;8.40;99.90;;;;;;5033779;28;20417;-89
2020/12/21 10:51:51;;;;;;;10.40;9.50;;;8.40;99.90;;;;;;5033113;28;20468;-89
2020/12/21 10:54:17;;;;;;;12.37;10.30;;;8.30;99.90;;;;;;5033215;28;20454;-89
2020/12/21 10:56:44;;;;;;;13.67;9.83;;;8.30;99.90;;;;;;5033108;28;20452;-89
2020/12/21 10:59:10;;;;;;;16.50;10.87;;;8.30;99.90;;;;;;5034735;28;20476;-90
2020/12/21 11:01:36;;;;;;;11.60;10.40;;;8.30;99.90;;;;;;5034600;28;20462;-88
2020/12/21 11:04:02;;;;;;;16.13;9.93;;;8.30;99.90;;;;;;5049148;28;20473;-89
2020/12/21 11:06:29;;;;;;;12.80;9.70;;;8.30;99.90;;;;;;5038639;28;20453;-86
2020/12/21 11:08:56;;;;;;;18.27;12.03;;;8.20;99.90;;;;;;5032283;28;20445;-87
2020/12/21 11:11:26;;;;;;;11.67;10.47;;;8.10;99.90;;;;;;5031772;28;20561;-87
2020/12/21 11:13:53;;;;;;;13.10;10.33;;;8.00;99.90;;;;;;5033144;28;20814;-88
2020/12/21 11:16:20;;;;;;;14.63;9.97;;;7.90;99.90;;;;;;5033615;28;21024;-89
2020/12/21 11:18:46;;;;;;;12.23;11.03;;;7.90;99.90;;;;;;5032827;28;20446;-88
2020/12/21 11:21:13;;;;;;;9.90;9.00;;;8.00;99.90;;;;;;5032406;28;20469;-87
2020/12/21 11:23:40;;;;;;;12.43;10.80;;;8.00;99.90;;;;;;5029579;28;20985;-89
2020/12/21 11:26:07;;;;;;;12.13;9.23;;;8.10;99.90;;;;;;5031697;28;20438;-85
2020/12/21 11:28:33;;;;;;;12.87;9.70;;;8.20;99.90;;;;;;5032409;28;20483;-85
2020/12/21 11:31:00;;;;;;;10.63;9.40;;;8.30;99.90;;;;;;5031698;28;20465;-84
2020/12/21 11:33:26;;;;;;;11.07;9.90;;;8.40;99.90;;;;;;5031543;28;20441;-85
2020/12/21 11:35:52;;;;;;;13.80;10.60;;;8.40;99.90;;;;;;5031888;28;20441;-85
2020/12/21 11:38:18;;;;;;;11.67;10.47;;;8.40;99.90;;;;;;5028539;28;20989;-84
2020/12/21 11:40:47;;;;;;;11.90;10.50;;;8.50;99.90;;;;;;5024531;28;20883;-88
2020/12/21 11:43:15;;;;;;;14.00;10.93;;;8.40;99.90;;;;;;5028019;28;20478;-88
2020/12/21 11:45:41;;;;;;;15.83;11.03;;;8.40;99.90;;;;;;5027001;28;20473;-87
2020/12/21 11:48:07;;;;;;;14.00;12.57;;;8.40;99.90;;;;;;5028162;28;20449;-89
2020/12/21 11:50:33;;;;;;;13.10;11.77;;;8.40;99.90;;;;;;5027256;28;20465;-87
2020/12/21 11:52:59;;;;;;;13.50;10.10;;;8.40;99.90;;;;;;5030462;28;20444;-86
2020/12/21 11:55:29;;;;;;;14.03;11.97;;;8.50;99.90;;;;;;5032247;28;20436;-90
2020/12/21 11:57:56;;;;;;;12.97;11.30;;;8.50;99.90;;;;;;5031604;28;20449;-83
2020/12/21 12:00:22;;;;;;;14.47;12.83;;;8.40;99.90;;;;;;5031545;28;20588;-85
2020/12/21 12:02:48;;;;;;;11.60;10.40;;;8.50;99.90;;;;;;5025028;28;20541;-85
2020/12/21 12:05:14;;;;;;;13.30;10.53;;;8.50;99.90;;;;;;5030789;28;20454;-88
2020/12/21 12:07:40;;;;;;;16.60;13.87;;;8.60;99.90;;;;;;5029518;28;20483;-86
2020/12/21 12:10:07;;;;;;;13.50;11.80;;;8.60;99.90;;;;;;5026919;28;20450;-89
2020/12/21 12:12:33;;;;;;;13.03;11.63;;;8.70;99.90;;;;;;5032077;28;20445;-89
2020/12/21 12:15:01;;;;;;;12.13;10.50;;;8.80;99.90;;;;;;5033112;28;20432;-88
2020/12/21 12:17:27;;;;;;;11.63;10.63;;;8.90;99.90;;;;;;5030453;28;20442;-87
2020/12/21 12:19:54;;;;;;;13.07;10.23;;;8.80;99.90;;;;;;5032305;28;20499;-91
2020/12/21 12:22:20;;;;;;;15.53;10.97;;;8.80;99.90;;;;;;5031325;28;20488;-87
2020/12/21 12:24:46;;;;;;;14.03;10.43;;;8.80;99.90;;;;;;5031528;28;20442;-87
2020/12/21 12:27:12;;;;;;;15.03;11.50;;;8.80;99.90;;;;;;5032606;28;20469;-86
2020/12/21 12:29:51;;;;;;;16.50;10.40;;;9.00;99.90;;;;;;5032712;28;20445;-93
2020/12/21 12:32:18;;;;;;;14.57;12.63;;;9.00;99.90;;;;;;5032038;28;20483;-86
2020/12/21 12:34:47;;;;;;;13.93;9.43;;;9.10;99.90;;;;;;5033941;28;20438;-94
2020/12/21 12:37:13;;;;;;;9.87;8.87;;;9.30;99.90;;;;;;5034201;28;20450;-92